createdAt,value
2018-04-12T00:01:47.675Z,59.70
2018-04-12T00:04:15.226Z,59.70
2018-04-12T00:06:42.728Z,59.60
2018-04-12T00:09:10.278Z,59.10
2018-04-12T00:11:37.787Z,59.30
2018-04-12T00:14:05.285Z,59.20
2018-04-12T00:16:33.556Z,59.20
2018-04-12T00:19:01.820Z,59.60
2018-04-12T00:21:30.098Z,59.70
2018-04-12T00:23:58.396Z,59.70
2018-04-12T00:26:25.908Z,59.70
2018-04-12T00:28:53.466Z,59.50
2018-04-12T00:31:21.017Z,59.80
2018-04-12T00:33:48.530Z,59.80
2018-04-12T00:36:16.038Z,60.40
2018-04-12T00:38:43.547Z,60.60
2018-04-12T00:41:11.073Z,60.50
2018-04-12T00:43:38.576Z,60.50
2018-04-12T00:46:06.080Z,60.70
2018-04-12T00:48:34.341Z,61.20
2018-04-12T00:51:01.847Z,61.00
2018-04-12T00:53:41.399Z,61.50
2018-04-12T00:56:08.905Z,61.70
2018-04-12T00:58:37.241Z,61.40
2018-04-12T01:01:04.749Z,61.40
2018-04-12T01:03:33.015Z,61.40
2018-04-12T01:06:01.282Z,60.80
2018-04-12T01:08:29.929Z,60.40
2018-04-12T01:10:57.454Z,60.40
2018-04-12T01:13:24.955Z,59.80
2018-04-12T01:15:52.458Z,59.50
2018-04-12T01:18:20.031Z,59.70
2018-04-12T01:20:47.533Z,59.80
2018-04-12T01:23:15.037Z,59.70
2018-04-12T01:25:42.544Z,59.80
2018-04-12T01:28:10.051Z,60.00
2018-04-12T01:30:37.596Z,60.20
2018-04-12T01:33:18.500Z,59.70
2018-04-12T01:35:46.084Z,59.70
2018-04-12T01:38:13.652Z,60.00
2018-04-12T01:40:41.159Z,59.70
2018-04-12T01:43:08.665Z,59.80
2018-04-12T01:45:36.233Z,60.00
2018-04-12T01:48:04.585Z,60.80
2018-04-12T01:50:32.080Z,60.80
2018-04-12T01:52:59.608Z,60.70
2018-04-12T01:55:27.100Z,60.60
2018-04-12T01:57:54.620Z,60.20
2018-04-12T02:00:22.181Z,60.00
2018-04-12T02:02:50.448Z,60.10
2018-04-12T02:05:17.949Z,60.10
2018-04-12T02:07:45.453Z,60.10
2018-04-12T02:10:12.956Z,59.80
2018-04-12T02:12:40.463Z,59.60
2018-04-12T02:15:08.037Z,59.50
2018-04-12T02:17:35.544Z,59.70
2018-04-12T02:20:03.041Z,59.80
2018-04-12T02:22:30.549Z,59.80
2018-04-12T02:24:58.060Z,60.30
2018-04-12T02:27:25.559Z,60.50
2018-04-12T02:29:53.066Z,60.50
2018-04-12T02:32:20.565Z,61.10
2018-04-12T02:34:48.819Z,61.60
2018-04-12T02:37:17.096Z,61.70
2018-04-12T02:39:45.365Z,62.50
2018-04-12T02:42:13.677Z,62.70
2018-04-12T02:44:41.185Z,62.70
2018-04-12T02:47:09.636Z,62.80
2018-04-12T02:49:37.153Z,62.70
2018-04-12T02:52:04.689Z,62.50
2018-04-12T02:54:32.963Z,63.00
2018-04-12T02:57:00.477Z,63.00
2018-04-12T02:59:27.968Z,62.70
2018-04-12T03:01:55.494Z,62.70
2018-04-12T03:04:23.009Z,62.00
2018-04-12T03:06:51.328Z,62.60
2018-04-12T03:09:18.829Z,62.60
2018-04-12T03:11:47.104Z,62.60
2018-04-12T03:14:15.380Z,63.10
2018-04-12T03:16:43.666Z,63.20
2018-04-12T03:19:11.935Z,63.20
2018-04-12T03:21:39.483Z,63.20
2018-04-12T03:24:07.794Z,64.20
2018-04-12T03:26:35.309Z,64.10
2018-04-12T03:29:03.593Z,64.20
2018-04-12T03:31:31.884Z,63.60
2018-04-12T03:33:59.421Z,63.50
2018-04-12T03:36:27.706Z,62.60
2018-04-12T03:38:55.229Z,62.50
2018-04-12T03:41:22.740Z,62.10
2018-04-12T03:43:50.257Z,61.80
2018-04-12T03:46:17.856Z,62.10
2018-04-12T03:48:45.425Z,62.10
2018-04-12T03:51:13.665Z,62.50
2018-04-12T03:53:41.982Z,62.50
2018-04-12T03:56:09.511Z,62.50
2018-04-12T03:58:37.029Z,62.70
2018-04-12T04:01:04.551Z,62.30
2018-04-12T04:03:32.072Z,62.20
2018-04-12T04:06:01.424Z,62.20
2018-04-12T04:08:28.983Z,62.10
2018-04-12T04:10:56.501Z,62.10
2018-04-12T04:13:24.010Z,62.10
2018-04-12T04:16:03.350Z,62.20
2018-04-12T04:18:42.638Z,62.10
2018-04-12T04:21:10.993Z,61.30
2018-04-12T04:23:38.497Z,61.30
2018-04-12T04:26:05.996Z,60.60
2018-04-12T04:28:34.269Z,59.60
2018-04-12T04:31:02.533Z,59.60
2018-04-12T04:33:30.068Z,59.60
2018-04-12T04:35:57.625Z,59.80
2018-04-12T04:38:25.132Z,60.00
2018-04-12T04:40:52.669Z,59.90
2018-04-12T04:43:20.291Z,60.00
2018-04-12T04:45:47.784Z,60.70
2018-04-12T04:48:16.224Z,61.20
2018-04-12T04:50:44.486Z,61.40
2018-04-12T04:53:12.009Z,61.30
2018-04-12T04:55:39.523Z,61.50
2018-04-12T04:58:07.018Z,61.40
2018-04-12T05:00:34.560Z,61.80
2018-04-12T05:03:02.822Z,61.40
2018-04-12T05:05:31.125Z,61.70
2018-04-12T05:07:58.705Z,61.70
2018-04-12T05:10:26.205Z,62.10
2018-04-12T05:12:53.737Z,61.90
2018-04-12T05:15:21.301Z,61.80
2018-04-12T05:17:48.809Z,61.80
2018-04-12T05:20:17.075Z,61.60
2018-04-12T05:22:44.599Z,61.50
2018-04-12T05:25:12.100Z,61.40
2018-04-12T05:27:39.618Z,61.90
2018-04-12T05:30:07.911Z,61.90
2018-04-12T05:32:36.238Z,61.60
2018-04-12T05:35:03.804Z,61.60
2018-04-12T05:37:31.362Z,61.70
2018-04-12T05:39:58.933Z,61.20
2018-04-12T05:42:26.538Z,61.10
2018-04-12T05:44:54.813Z,61.60
2018-04-12T05:47:22.349Z,61.60
2018-04-12T05:49:50.645Z,61.10
2018-04-12T05:52:18.200Z,61.00
2018-04-12T05:54:45.721Z,61.70
2018-04-12T05:57:13.238Z,61.60
2018-04-12T05:59:40.758Z,61.50
2018-04-12T06:02:09.024Z,61.70
2018-04-12T06:04:37.316Z,61.30
2018-04-12T06:07:05.587Z,61.20
2018-04-12T06:09:33.854Z,59.90
2018-04-12T06:12:02.112Z,59.80
2018-04-12T06:14:29.942Z,59.80
2018-04-12T06:16:57.482Z,59.80
2018-04-12T06:19:24.996Z,59.40
2018-04-12T06:21:53.318Z,58.70
2018-04-12T06:24:20.941Z,58.60
2018-04-12T06:26:49.214Z,58.10
2018-04-12T06:29:16.735Z,58.10
2018-04-12T06:31:44.244Z,57.60
2018-04-12T06:34:11.805Z,58.30
2018-04-12T06:36:39.310Z,57.50
2018-04-12T06:39:06.831Z,57.80
2018-04-12T06:41:34.353Z,58.20
2018-04-12T06:44:02.624Z,56.90
2018-04-12T06:46:30.908Z,58.30
2018-04-12T06:48:59.216Z,57.20
2018-04-12T06:51:26.785Z,57.00
2018-04-12T06:53:54.346Z,57.20
2018-04-12T06:56:21.868Z,56.50
2018-04-12T06:58:49.434Z,56.30
2018-04-12T07:01:16.932Z,56.50
2018-04-12T07:03:44.462Z,55.60
2018-04-12T07:06:11.981Z,55.50
2018-04-12T07:08:40.250Z,55.50
2018-04-12T07:11:08.609Z,54.90
2018-04-12T07:13:36.160Z,54.80
2018-04-12T07:16:04.463Z,55.00
2018-04-12T07:18:32.728Z,54.90
2018-04-12T07:21:01.008Z,53.50
2018-04-12T07:23:28.772Z,53.40
2018-04-12T07:25:57.124Z,53.40
2018-04-12T07:28:25.421Z,52.70
2018-04-12T07:30:53.684Z,51.90
2018-04-12T07:33:21.189Z,51.90
2018-04-12T07:35:48.717Z,51.60
2018-04-12T07:38:17.032Z,49.80
2018-04-12T07:40:44.543Z,49.80
2018-04-12T07:43:12.808Z,48.30
2018-04-12T07:45:41.125Z,48.00
2018-04-12T07:48:08.694Z,48.00
2018-04-12T07:50:36.193Z,48.30
2018-04-12T07:53:03.708Z,48.60
2018-04-12T07:55:31.269Z,49.50
2018-04-12T07:57:59.500Z,48.80
2018-04-12T08:00:27.773Z,48.20
2018-04-12T08:02:55.292Z,48.10
2018-04-12T08:05:22.803Z,48.30
2018-04-12T08:07:50.371Z,48.60
2018-04-12T08:10:17.869Z,49.20
2018-04-12T08:12:45.369Z,46.80
2018-04-12T08:15:12.868Z,44.80
2018-04-12T08:17:40.396Z,45.00
2018-04-12T08:20:07.958Z,44.80
2018-04-12T08:22:35.457Z,44.10
2018-04-12T08:25:02.971Z,42.30
2018-04-12T08:27:30.470Z,42.80
2018-04-12T08:29:58.831Z,42.30
2018-04-12T08:32:26.393Z,42.10
2018-04-12T08:34:53.908Z,42.60
2018-04-12T08:37:21.412Z,41.40
2018-04-12T08:39:48.907Z,42.80
2018-04-12T08:42:17.172Z,39.00
2018-04-12T08:44:45.453Z,40.20
2018-04-12T08:47:13.716Z,39.20
2018-04-12T08:49:41.996Z,39.40
2018-04-12T08:52:10.267Z,40.30
2018-04-12T08:54:37.781Z,40.30
2018-04-12T08:57:05.286Z,39.80
2018-04-12T08:59:33.551Z,40.90
2018-04-12T09:02:01.829Z,39.90
2018-04-12T09:04:30.129Z,40.70
2018-04-12T09:06:57.696Z,40.70
2018-04-12T09:09:25.192Z,41.50
2018-04-12T09:11:52.747Z,39.30
2018-04-12T09:14:20.266Z,40.00
2018-04-12T09:16:47.801Z,39.40
2018-04-12T09:19:16.180Z,39.00
2018-04-12T09:21:43.739Z,39.80
2018-04-12T09:24:11.271Z,40.40
2018-04-12T09:26:39.557Z,41.40
2018-04-12T09:29:07.871Z,39.10
2018-04-12T09:31:35.374Z,39.10
2018-04-12T09:34:02.875Z,40.30
2018-04-12T09:36:30.371Z,38.20
2018-04-12T09:38:57.915Z,39.70
2018-04-12T09:41:25.465Z,39.00
2018-04-12T09:43:53.116Z,39.70
2018-04-12T09:46:20.649Z,40.30
2018-04-12T09:48:48.142Z,40.10
2018-04-12T09:51:15.658Z,39.30
2018-04-12T09:53:43.973Z,38.90
2018-04-12T09:56:11.477Z,38.90
2018-04-12T09:58:39.748Z,38.60
2018-04-12T10:01:11.917Z,38.60
2018-04-12T10:03:44.208Z,38.50
2018-04-12T10:06:17.413Z,38.40
2018-04-12T10:08:51.061Z,39.20
2018-04-12T10:11:18.572Z,40.10
2018-04-12T10:13:46.217Z,39.40
2018-04-12T10:16:13.725Z,38.60
2018-04-12T10:18:41.213Z,37.70
2018-04-12T10:21:09.525Z,36.20
2018-04-12T10:23:37.049Z,36.20
2018-04-12T10:26:04.566Z,37.20
2018-04-12T10:28:32.377Z,35.50
2018-04-12T10:30:59.909Z,36.60
2018-04-12T10:33:28.192Z,38.30
2018-04-12T10:35:55.743Z,38.30
2018-04-12T10:38:24.072Z,34.30
2018-04-12T10:40:51.632Z,34.30
2018-04-12T10:43:19.137Z,34.90
2018-04-12T10:45:47.453Z,34.80
2018-04-12T10:48:14.974Z,34.80
2018-04-12T10:50:42.509Z,37.80
2018-04-12T10:53:10.021Z,37.80
2018-04-12T10:55:37.597Z,38.50
2018-04-12T10:58:05.096Z,34.20
2018-04-12T11:00:33.368Z,35.60
2018-04-12T11:03:01.640Z,35.80
2018-04-12T11:05:29.917Z,35.20
2018-04-12T11:07:58.193Z,35.00
2018-04-12T11:10:25.796Z,34.80
2018-04-12T11:12:53.301Z,34.80
2018-04-12T11:15:21.580Z,36.90
2018-04-12T11:17:49.919Z,37.00
2018-04-12T11:20:17.449Z,37.00
2018-04-12T11:22:44.948Z,37.10
2018-04-12T11:25:12.440Z,36.10
2018-04-12T11:27:40.770Z,36.40
2018-04-12T11:30:08.273Z,36.30
2018-04-12T11:32:36.596Z,33.40
2018-04-12T11:35:04.171Z,33.30
2018-04-12T11:37:31.689Z,35.90
2018-04-12T11:39:59.268Z,34.00
2018-04-12T11:42:26.773Z,32.20
2018-04-12T11:44:54.296Z,34.40
2018-04-12T11:47:21.796Z,33.20
2018-04-12T11:49:49.352Z,35.00
2018-04-12T11:52:16.848Z,33.70
2018-04-12T11:54:44.349Z,30.40
2018-04-12T11:57:12.628Z,29.00
2018-04-12T11:59:40.885Z,28.60
2018-04-12T12:02:09.168Z,28.80
2018-04-12T12:04:36.680Z,28.80
2018-04-12T12:07:04.185Z,28.60
2018-04-12T12:09:32.453Z,28.80
2018-04-12T12:12:00.728Z,28.10
2018-04-12T12:14:29.928Z,28.30
2018-04-12T12:16:57.463Z,28.30
2018-04-12T12:19:25.026Z,28.40
2018-04-12T12:21:52.519Z,27.30
2018-04-12T12:24:20.023Z,27.70
2018-04-12T12:26:47.513Z,27.40
2018-04-12T12:29:15.784Z,26.30
2018-04-12T12:31:44.057Z,27.90
2018-04-12T12:34:12.329Z,27.40
2018-04-12T12:36:40.606Z,26.10
2018-04-12T12:39:08.887Z,27.10
2018-04-12T12:41:38.560Z,27.10
2018-04-12T12:44:06.056Z,27.10
2018-04-12T12:46:34.325Z,27.70
2018-04-12T12:49:02.599Z,26.70
2018-04-12T12:51:30.906Z,26.70
2018-04-12T12:53:58.959Z,26.60
2018-04-12T12:56:26.491Z,26.80
2018-04-12T12:58:53.995Z,27.30
2018-04-12T13:01:21.609Z,26.70
2018-04-12T13:03:49.104Z,26.20
2018-04-12T13:06:16.648Z,27.00
2018-04-12T13:08:44.196Z,26.40
2018-04-12T13:11:12.469Z,26.70
2018-04-12T13:13:40.043Z,26.70
2018-04-12T13:16:07.550Z,27.80
2018-04-12T13:18:35.048Z,27.40
2018-04-12T13:21:02.557Z,26.70
2018-04-12T13:23:31.037Z,27.40
2018-04-12T13:25:58.953Z,27.00
2018-04-12T13:28:26.465Z,26.50
2018-04-12T13:30:54.764Z,26.50
2018-04-12T13:33:23.031Z,26.90
2018-04-12T13:35:51.574Z,27.40
2018-04-12T13:38:19.076Z,27.30
2018-04-12T13:40:47.370Z,27.80
2018-04-12T13:43:14.879Z,27.70
2018-04-12T13:45:42.385Z,27.70
2018-04-12T13:48:09.883Z,27.20
2018-04-12T13:50:37.409Z,27.40
2018-04-12T13:53:04.922Z,26.70
2018-04-12T13:55:33.213Z,27.40
2018-04-12T13:58:01.856Z,27.40
2018-04-12T14:00:29.472Z,27.30
2018-04-12T14:02:57.108Z,26.60
2018-04-12T14:05:25.460Z,27.10
2018-04-12T14:07:52.960Z,27.00
2018-04-12T14:10:20.460Z,26.20
2018-04-12T14:12:47.979Z,27.50
2018-04-12T14:15:15.479Z,27.30
2018-04-12T14:17:42.974Z,27.80
2018-04-12T14:20:11.286Z,26.50
2018-04-12T14:22:38.772Z,26.40
2018-04-12T14:25:07.104Z,28.50
2018-04-12T14:27:34.648Z,28.40
2018-04-12T14:30:02.151Z,28.80
2018-04-12T14:32:30.183Z,27.70
2018-04-12T14:34:57.805Z,28.40
2018-04-12T14:37:25.291Z,29.20
2018-04-12T14:39:52.832Z,28.00
2018-04-12T14:42:21.106Z,28.30
2018-04-12T14:44:49.368Z,28.90
2018-04-12T14:47:16.907Z,28.80
2018-04-12T14:49:44.456Z,29.00
2018-04-12T14:52:11.965Z,29.00
2018-04-12T14:54:39.452Z,28.70
2018-04-12T14:57:06.947Z,29.00
2018-04-12T14:59:35.230Z,28.10
2018-04-12T15:02:03.493Z,28.20
2018-04-12T15:04:31.773Z,28.90
2018-04-12T15:07:00.560Z,29.30
2018-04-12T15:09:29.395Z,29.30
2018-04-12T15:11:56.884Z,29.30
2018-04-12T15:14:24.379Z,29.50
2018-04-12T15:16:51.925Z,29.20
2018-04-12T15:19:20.179Z,29.30
2018-04-12T15:21:48.453Z,30.40
2018-04-12T15:24:15.947Z,30.20
2018-04-12T15:26:43.461Z,29.70
2018-04-12T15:29:11.731Z,29.90
2018-04-12T15:31:39.236Z,29.80
2018-04-12T15:34:06.785Z,30.00
2018-04-12T15:36:34.296Z,31.60
2018-04-12T15:39:01.807Z,31.40
2018-04-12T15:41:29.776Z,30.90
2018-04-12T15:43:57.272Z,30.30
2018-04-12T15:46:24.774Z,29.90
2018-04-12T15:48:52.288Z,30.30
2018-04-12T15:51:19.778Z,31.10
2018-04-12T15:53:48.044Z,31.00
2018-04-12T15:56:16.323Z,30.90
2018-04-12T15:58:44.654Z,31.00
2018-04-12T16:01:12.149Z,30.80
2018-04-12T16:03:39.649Z,30.70
2018-04-12T16:06:07.141Z,30.40
2018-04-12T16:08:34.646Z,30.60
2018-04-12T16:11:02.987Z,30.10
2018-04-12T16:13:30.990Z,30.10
2018-04-12T16:15:58.976Z,31.20
2018-04-12T16:18:26.483Z,30.90
2018-04-12T16:20:53.993Z,31.40
2018-04-12T16:23:21.513Z,31.50
2018-04-12T16:25:49.076Z,30.90
2018-04-12T16:28:16.603Z,31.10
2018-04-12T16:30:44.884Z,32.30
2018-04-12T16:33:13.161Z,32.30
2018-04-12T16:35:41.437Z,32.40
2018-04-12T16:38:08.959Z,32.30
2018-04-12T16:40:36.504Z,33.40
2018-04-12T16:43:04.036Z,33.30
2018-04-12T16:45:32.020Z,33.30
2018-04-12T16:47:59.953Z,33.50
2018-04-12T16:50:27.483Z,33.90
2018-04-12T16:52:54.994Z,34.50
2018-04-12T16:55:22.523Z,34.80
2018-04-12T16:57:50.793Z,35.50
2018-04-12T17:00:19.075Z,35.60
2018-04-12T17:02:46.592Z,35.60
2018-04-12T17:05:14.085Z,35.60
2018-04-12T17:07:42.349Z,36.00
2018-04-12T17:10:09.879Z,36.60
2018-04-12T17:12:37.398Z,36.70
2018-04-12T17:15:04.970Z,36.20
2018-04-12T17:17:32.483Z,36.30
2018-04-12T17:20:01.145Z,36.60
2018-04-12T17:22:29.324Z,36.60
2018-04-12T17:24:56.872Z,36.70
2018-04-12T17:27:25.160Z,36.70
2018-04-12T17:29:52.711Z,36.70
2018-04-12T17:32:20.214Z,36.50
2018-04-12T17:34:47.725Z,37.30
2018-04-12T17:37:16.055Z,38.10
2018-04-12T17:39:43.517Z,38.00
2018-04-12T17:42:10.989Z,38.30
2018-04-12T17:44:41.471Z,39.00
2018-04-12T17:47:10.127Z,39.40
2018-04-12T17:49:37.607Z,39.30
2018-04-12T17:52:05.074Z,39.30
2018-04-12T17:54:33.305Z,40.80
2018-04-12T17:57:04.244Z,40.70
2018-04-12T17:59:31.743Z,40.00
2018-04-12T18:01:59.213Z,40.30
2018-04-12T18:04:33.981Z,40.80
2018-04-12T18:07:02.096Z,40.70
2018-04-12T18:09:29.585Z,41.20
2018-04-12T18:12:02.510Z,41.90
2018-04-12T18:14:29.968Z,42.40
2018-04-12T18:16:57.428Z,41.80
2018-04-12T18:19:31.593Z,42.50
2018-04-12T18:21:59.824Z,42.20
2018-04-12T18:24:27.320Z,42.20
2018-04-12T18:26:55.544Z,43.10
2018-04-12T18:29:23.009Z,43.10
2018-04-12T18:31:50.492Z,42.30
2018-04-12T18:34:21.969Z,43.10
2018-04-12T18:39:23.174Z,43.50
2018-04-12T18:41:54.080Z,43.40
2018-04-12T18:44:23.707Z,43.60
2018-04-12T18:46:51.236Z,43.50
2018-04-12T18:49:18.675Z,43.60
2018-04-12T18:51:46.900Z,45.30
2018-04-12T18:54:16.689Z,44.80
2018-04-12T18:56:44.233Z,45.30
2018-04-12T18:59:11.735Z,45.20
2018-04-12T19:01:39.232Z,44.90
2018-04-12T19:04:10.827Z,44.80
2018-04-12T19:06:38.322Z,45.60
2018-04-12T19:09:05.790Z,46.10
2018-04-12T19:11:33.261Z,46.20
2018-04-12T19:14:01.501Z,46.80
2018-04-12T19:16:28.963Z,46.80
2018-04-12T19:19:00.449Z,46.20
2018-04-12T19:21:27.919Z,46.20
2018-04-12T19:23:56.172Z,46.70
2018-04-12T19:26:23.636Z,46.50
2018-04-12T19:28:51.873Z,46.70
2018-04-12T19:31:19.597Z,46.20
2018-04-12T19:33:47.080Z,49.40
2018-04-12T19:36:14.540Z,50.00
2018-04-12T19:38:42.012Z,50.00
2018-04-12T19:41:09.485Z,50.00
2018-04-12T19:43:36.944Z,49.90
2018-04-12T19:46:04.466Z,49.50
2018-04-12T19:48:31.968Z,48.80
2018-04-12T19:50:59.440Z,49.20
2018-04-12T19:53:27.704Z,51.90
2018-04-12T19:55:55.285Z,51.90
2018-04-12T19:58:22.761Z,52.70
2018-04-12T20:00:50.233Z,53.30
2018-04-12T20:03:18.452Z,52.00
2018-04-12T20:05:46.056Z,51.90
2018-04-12T20:08:13.509Z,51.70
2018-04-12T20:10:40.989Z,53.20
2018-04-12T20:13:08.489Z,52.40
2018-04-12T20:15:35.962Z,52.30
2018-04-12T20:18:03.449Z,51.30
2018-04-12T20:20:30.904Z,51.00
2018-04-12T20:22:58.374Z,50.60
2018-04-12T20:25:25.825Z,53.50
2018-04-12T20:27:53.293Z,51.60
2018-04-12T20:30:20.748Z,52.50
2018-04-12T20:32:48.215Z,50.60
2018-04-12T20:35:15.689Z,51.00
2018-04-12T20:37:43.154Z,51.50
2018-04-12T20:40:10.621Z,52.40
2018-04-12T20:42:38.071Z,52.40
2018-04-12T20:45:05.541Z,52.50
2018-04-12T20:47:33.780Z,54.30
2018-04-12T20:50:01.243Z,54.30
2018-04-12T20:52:28.720Z,54.00
2018-04-12T20:54:56.969Z,53.50
2018-04-12T20:57:24.424Z,53.50
2018-04-12T20:59:52.656Z,52.20
2018-04-12T21:02:20.113Z,52.10
2018-04-12T21:04:47.593Z,52.40
2018-04-12T21:07:15.049Z,52.30
2018-04-12T21:09:44.220Z,53.20
2018-04-12T21:12:12.452Z,55.50
2018-04-12T21:14:39.911Z,55.30
2018-04-12T21:17:07.373Z,54.00
2018-04-12T21:19:34.831Z,54.80
2018-04-12T21:22:02.293Z,53.80
2018-04-12T21:24:29.753Z,53.70
2018-04-12T21:26:57.221Z,54.70
2018-04-12T21:29:25.542Z,55.30
2018-04-12T21:31:53.017Z,55.30
2018-04-12T21:34:20.480Z,56.10
2018-04-12T21:36:47.949Z,55.80
2018-04-12T21:39:15.417Z,55.70
2018-04-12T21:41:42.880Z,55.50
2018-04-12T21:44:10.340Z,55.50
2018-04-12T21:46:37.808Z,56.00
2018-04-12T21:49:06.040Z,56.00
2018-04-12T21:51:33.500Z,56.00
2018-04-12T21:54:00.983Z,57.20
2018-04-12T21:56:28.457Z,56.60
2018-04-12T21:58:55.927Z,59.50
2018-04-12T22:01:24.160Z,59.00
2018-04-12T22:03:51.649Z,58.90
2018-04-12T22:06:19.877Z,58.30
2018-04-12T22:08:47.352Z,58.30
2018-04-12T22:11:14.810Z,58.60
2018-04-12T22:13:42.272Z,58.70
2018-04-12T22:16:09.732Z,57.90
2018-04-12T22:18:37.216Z,57.80
2018-04-12T22:21:05.451Z,58.30
2018-04-12T22:23:32.908Z,58.20
2018-04-12T22:26:00.373Z,56.90
2018-04-12T22:28:27.835Z,57.80
2018-04-12T22:30:55.333Z,58.70
2018-04-12T22:33:22.828Z,60.30
2018-04-12T22:35:50.285Z,58.70
2018-04-12T22:38:17.752Z,58.20
2018-04-12T22:40:45.211Z,57.20
2018-04-12T22:43:12.677Z,58.20
2018-04-12T22:45:40.144Z,59.00
2018-04-12T22:48:07.629Z,59.20
2018-04-12T22:50:35.861Z,59.60
2018-04-12T22:53:03.324Z,59.60
2018-04-12T22:55:30.793Z,60.60
2018-04-12T22:57:58.260Z,62.40
2018-04-12T23:00:26.498Z,63.00
2018-04-12T23:02:53.964Z,63.00
2018-04-12T23:05:21.411Z,62.10
2018-04-12T23:07:48.889Z,62.20
2018-04-12T23:10:16.349Z,60.70
2018-04-12T23:12:43.808Z,60.70
2018-04-12T23:15:11.276Z,60.60
2018-04-12T23:17:39.501Z,61.30
2018-04-12T23:20:06.976Z,60.40
2018-04-12T23:22:34.446Z,61.90
2018-04-12T23:25:01.902Z,62.70
2018-04-12T23:27:29.364Z,62.50
2018-04-12T23:29:56.836Z,63.20
2018-04-12T23:32:24.303Z,62.80
2018-04-12T23:34:52.741Z,65.50
2018-04-12T23:37:20.204Z,65.40
2018-04-12T23:39:47.677Z,62.50
2018-04-12T23:42:15.140Z,63.30
2018-04-12T23:44:43.389Z,62.60
2018-04-12T23:47:10.850Z,62.60
2018-04-12T23:49:38.333Z,62.20
2018-04-12T23:52:05.797Z,61.60
2018-04-12T23:54:34.028Z,64.90
2018-04-12T23:57:01.496Z,64.90
2018-04-12T23:59:28.964Z,69.10
